sensor_id;sensor_type;location;lat;lon;timestamp;P1;durP1;ratioP1;P2;durP2;ratioP2
10481;SDS011;5288;42.334;23.876;2022-10-16T00:01:15;8.17;;;6.47;;
10481;SDS011;5288;42.334;23.876;2022-10-16T00:03:43;8.33;;;5.97;;
10481;SDS011;5288;42.334;23.876;2022-10-16T00:06:12;6.60;;;5.90;;
10481;SDS011;5288;42.334;23.876;2022-10-16T00:08:40;8.10;;;6.10;;
10481;SDS011;5288;42.334;23.876;2022-10-16T00:11:10;6.00;;;5.40;;
10481;SDS011;5288;42.334;23.876;2022-10-16T00:13:40;6.87;;;5.30;;
10481;SDS011;5288;42.334;23.876;2022-10-16T00:16:08;5.73;;;5.13;;
10481;SDS011;5288;42.334;23.876;2022-10-16T00:18:38;8.53;;;5.33;;
10481;SDS011;5288;42.334;23.876;2022-10-16T00:21:06;8.73;;;6.37;;
10481;SDS011;5288;42.334;23.876;2022-10-16T00:23:36;7.80;;;5.83;;
10481;SDS011;5288;42.334;23.876;2022-10-16T00:26:04;6.23;;;5.63;;
10481;SDS011;5288;42.334;23.876;2022-10-16T00:28:34;7.13;;;6.03;;
10481;SDS011;5288;42.334;23.876;2022-10-16T00:31:02;5.97;;;5.37;;
10481;SDS011;5288;42.334;23.876;2022-10-16T00:33:30;9.03;;;5.87;;
10481;SDS011;5288;42.334;23.876;2022-10-16T00:35:58;10.07;;;5.80;;
10481;SDS011;5288;42.334;23.876;2022-10-16T00:38:25;5.70;;;5.07;;
10481;SDS011;5288;42.334;23.876;2022-10-16T00:40:52;6.03;;;5.17;;
10481;SDS011;5288;42.334;23.876;2022-10-16T00:43:34;6.57;;;5.23;;
10481;SDS011;5288;42.334;23.876;2022-10-16T00:46:07;10.63;;;6.30;;
10481;SDS011;5288;42.334;23.876;2022-10-16T00:48:39;7.30;;;5.57;;
10481;SDS011;5288;42.334;23.876;2022-10-16T00:51:07;7.67;;;5.80;;
10481;SDS011;5288;42.334;23.876;2022-10-16T00:53:34;7.73;;;6.30;;
10481;SDS011;5288;42.334;23.876;2022-10-16T00:56:03;7.43;;;6.37;;
10481;SDS011;5288;42.334;23.876;2022-10-16T00:58:30;7.13;;;6.17;;
10481;SDS011;5288;42.334;23.876;2022-10-16T01:00:59;7.90;;;5.70;;
10481;SDS011;5288;42.334;23.876;2022-10-16T01:03:27;6.93;;;6.23;;
10481;SDS011;5288;42.334;23.876;2022-10-16T01:06:02;6.87;;;5.63;;
10481;SDS011;5288;42.334;23.876;2022-10-16T01:08:49;8.50;;;5.73;;
10481;SDS011;5288;42.334;23.876;2022-10-16T01:11:27;9.33;;;5.70;;
10481;SDS011;5288;42.334;23.876;2022-10-16T01:14:02;6.33;;;5.00;;
10481;SDS011;5288;42.334;23.876;2022-10-16T01:16:39;6.23;;;5.47;;
10481;SDS011;5288;42.334;23.876;2022-10-16T01:19:12;5.67;;;5.17;;
10481;SDS011;5288;42.334;23.876;2022-10-16T01:21:44;6.70;;;5.50;;
10481;SDS011;5288;42.334;23.876;2022-10-16T01:24:17;7.87;;;5.70;;
10481;SDS011;5288;42.334;23.876;2022-10-16T01:27:13;5.60;;;5.03;;
10481;SDS011;5288;42.334;23.876;2022-10-16T01:29:46;6.07;;;5.47;;
10481;SDS011;5288;42.334;23.876;2022-10-16T01:32:18;9.77;;;5.87;;
10481;SDS011;5288;42.334;23.876;2022-10-16T01:34:49;7.30;;;4.93;;
10481;SDS011;5288;42.334;23.876;2022-10-16T01:37:22;5.50;;;4.80;;
10481;SDS011;5288;42.334;23.876;2022-10-16T01:39:56;8.50;;;6.30;;
10481;SDS011;5288;42.334;23.876;2022-10-16T01:42:28;6.70;;;5.40;;
10481;SDS011;5288;42.334;23.876;2022-10-16T01:45:01;7.63;;;6.10;;
10481;SDS011;5288;42.334;23.876;2022-10-16T01:47:33;7.97;;;5.50;;
10481;SDS011;5288;42.334;23.876;2022-10-16T01:50:02;8.47;;;5.53;;
10481;SDS011;5288;42.334;23.876;2022-10-16T01:52:32;7.20;;;5.30;;
10481;SDS011;5288;42.334;23.876;2022-10-16T01:55:02;8.90;;;5.93;;
10481;SDS011;5288;42.334;23.876;2022-10-16T01:57:34;6.67;;;5.63;;
10481;SDS011;5288;42.334;23.876;2022-10-16T02:00:06;6.33;;;5.13;;
10481;SDS011;5288;42.334;23.876;2022-10-16T02:02:36;7.83;;;5.53;;
10481;SDS011;5288;42.334;23.876;2022-10-16T02:05:09;6.53;;;5.00;;
10481;SDS011;5288;42.334;23.876;2022-10-16T02:07:40;6.47;;;5.80;;
10481;SDS011;5288;42.334;23.876;2022-10-16T02:10:07;7.17;;;5.70;;
10481;SDS011;5288;42.334;23.876;2022-10-16T02:12:37;6.53;;;5.73;;
10481;SDS011;5288;42.334;23.876;2022-10-16T02:15:07;6.47;;;5.57;;
10481;SDS011;5288;42.334;23.876;2022-10-16T02:17:35;8.43;;;5.73;;
10481;SDS011;5288;42.334;23.876;2022-10-16T02:20:03;8.13;;;6.50;;
10481;SDS011;5288;42.334;23.876;2022-10-16T02:22:32;8.33;;;6.30;;
10481;SDS011;5288;42.334;23.876;2022-10-16T02:25:03;7.50;;;6.00;;
10481;SDS011;5288;42.334;23.876;2022-10-16T02:27:35;7.17;;;6.30;;
10481;SDS011;5288;42.334;23.876;2022-10-16T02:30:11;7.33;;;6.00;;
10481;SDS011;5288;42.334;23.876;2022-10-16T02:32:42;7.53;;;5.20;;
10481;SDS011;5288;42.334;23.876;2022-10-16T02:35:12;6.07;;;5.17;;
10481;SDS011;5288;42.334;23.876;2022-10-16T02:37:41;6.50;;;5.80;;
10481;SDS011;5288;42.334;23.876;2022-10-16T02:40:09;6.07;;;5.47;;
10481;SDS011;5288;42.334;23.876;2022-10-16T02:42:38;6.40;;;5.80;;
10481;SDS011;5288;42.334;23.876;2022-10-16T02:45:08;6.63;;;5.27;;
10481;SDS011;5288;42.334;23.876;2022-10-16T02:47:37;7.27;;;6.07;;
10481;SDS011;5288;42.334;23.876;2022-10-16T02:50:05;6.23;;;5.07;;
10481;SDS011;5288;42.334;23.876;2022-10-16T02:52:32;6.87;;;6.17;;
10481;SDS011;5288;42.334;23.876;2022-10-16T02:54:59;8.40;;;6.10;;
10481;SDS011;5288;42.334;23.876;2022-10-16T02:57:27;6.47;;;5.60;;
10481;SDS011;5288;42.334;23.876;2022-10-16T02:59:56;7.13;;;6.03;;
10481;SDS011;5288;42.334;23.876;2022-10-16T03:02:23;6.20;;;5.43;;
10481;SDS011;5288;42.334;23.876;2022-10-16T03:04:50;7.17;;;5.90;;
10481;SDS011;5288;42.334;23.876;2022-10-16T03:07:17;16.03;;;6.00;;
10481;SDS011;5288;42.334;23.876;2022-10-16T03:09:44;7.73;;;5.60;;
10481;SDS011;5288;42.334;23.876;2022-10-16T03:12:11;7.03;;;5.90;;
10481;SDS011;5288;42.334;23.876;2022-10-16T03:14:38;6.87;;;5.60;;
10481;SDS011;5288;42.334;23.876;2022-10-16T03:17:07;10.23;;;6.17;;
10481;SDS011;5288;42.334;23.876;2022-10-16T03:19:34;7.53;;;5.87;;
10481;SDS011;5288;42.334;23.876;2022-10-16T03:22:01;10.93;;;6.77;;
10481;SDS011;5288;42.334;23.876;2022-10-16T03:24:29;8.03;;;6.00;;
10481;SDS011;5288;42.334;23.876;2022-10-16T03:26:56;6.97;;;5.73;;
10481;SDS011;5288;42.334;23.876;2022-10-16T03:29:23;7.43;;;6.07;;
10481;SDS011;5288;42.334;23.876;2022-10-16T03:31:51;8.63;;;6.40;;
10481;SDS011;5288;42.334;23.876;2022-10-16T03:34:19;7.43;;;5.90;;
10481;SDS011;5288;42.334;23.876;2022-10-16T03:36:46;9.83;;;6.83;;
10481;SDS011;5288;42.334;23.876;2022-10-16T03:39:13;8.47;;;6.07;;
10481;SDS011;5288;42.334;23.876;2022-10-16T03:41:40;8.80;;;6.27;;
10481;SDS011;5288;42.334;23.876;2022-10-16T03:44:07;9.40;;;6.80;;
10481;SDS011;5288;42.334;23.876;2022-10-16T03:46:34;7.27;;;6.10;;
10481;SDS011;5288;42.334;23.876;2022-10-16T03:49:01;7.80;;;6.00;;
10481;SDS011;5288;42.334;23.876;2022-10-16T03:51:30;7.73;;;6.10;;
10481;SDS011;5288;42.334;23.876;2022-10-16T03:53:57;8.37;;;6.13;;
10481;SDS011;5288;42.334;23.876;2022-10-16T03:56:24;7.80;;;6.47;;
10481;SDS011;5288;42.334;23.876;2022-10-16T03:58:51;10.63;;;7.10;;
10481;SDS011;5288;42.334;23.876;2022-10-16T04:01:18;6.97;;;5.90;;
10481;SDS011;5288;42.334;23.876;2022-10-16T04:03:45;9.27;;;6.57;;
10481;SDS011;5288;42.334;23.876;2022-10-16T04:06:12;8.03;;;6.70;;
10481;SDS011;5288;42.334;23.876;2022-10-16T04:08:41;9.33;;;6.83;;
10481;SDS011;5288;42.334;23.876;2022-10-16T04:11:08;11.23;;;8.83;;
10481;SDS011;5288;42.334;23.876;2022-10-16T04:13:35;10.03;;;7.93;;
10481;SDS011;5288;42.334;23.876;2022-10-16T04:16:03;8.00;;;7.17;;
10481;SDS011;5288;42.334;23.876;2022-10-16T04:18:30;9.83;;;7.27;;
10481;SDS011;5288;42.334;23.876;2022-10-16T04:21:01;7.73;;;6.93;;
10481;SDS011;5288;42.334;23.876;2022-10-16T04:23:29;8.20;;;6.50;;
10481;SDS011;5288;42.334;23.876;2022-10-16T04:25:58;9.67;;;6.63;;
10481;SDS011;5288;42.334;23.876;2022-10-16T04:28:25;7.63;;;6.87;;
10481;SDS011;5288;42.334;23.876;2022-10-16T04:30:52;11.13;;;6.87;;
10481;SDS011;5288;42.334;23.876;2022-10-16T04:33:19;7.47;;;6.53;;
10481;SDS011;5288;42.334;23.876;2022-10-16T04:35:46;10.77;;;6.93;;
10481;SDS011;5288;42.334;23.876;2022-10-16T04:38:13;8.73;;;7.30;;
10481;SDS011;5288;42.334;23.876;2022-10-16T04:40:41;12.37;;;7.37;;
10481;SDS011;5288;42.334;23.876;2022-10-16T04:43:09;10.13;;;7.47;;
10481;SDS011;5288;42.334;23.876;2022-10-16T04:45:37;9.03;;;7.17;;
10481;SDS011;5288;42.334;23.876;2022-10-16T04:48:04;8.33;;;7.43;;
10481;SDS011;5288;42.334;23.876;2022-10-16T04:50:33;8.67;;;7.77;;
10481;SDS011;5288;42.334;23.876;2022-10-16T04:53:08;11.50;;;7.83;;
10481;SDS011;5288;42.334;23.876;2022-10-16T04:55:41;12.17;;;8.33;;
10481;SDS011;5288;42.334;23.876;2022-10-16T04:58:10;10.33;;;8.40;;
10481;SDS011;5288;42.334;23.876;2022-10-16T05:00:37;10.70;;;7.93;;
10481;SDS011;5288;42.334;23.876;2022-10-16T05:03:04;11.63;;;8.67;;
10481;SDS011;5288;42.334;23.876;2022-10-16T05:05:34;13.07;;;9.73;;
10481;SDS011;5288;42.334;23.876;2022-10-16T05:08:01;11.53;;;9.87;;
10481;SDS011;5288;42.334;23.876;2022-10-16T05:10:29;11.67;;;8.60;;
10481;SDS011;5288;42.334;23.876;2022-10-16T05:12:56;12.50;;;10.40;;
10481;SDS011;5288;42.334;23.876;2022-10-16T05:15:24;14.83;;;11.40;;
10481;SDS011;5288;42.334;23.876;2022-10-16T05:17:54;13.93;;;11.07;;
10481;SDS011;5288;42.334;23.876;2022-10-16T05:20:22;16.03;;;12.37;;
10481;SDS011;5288;42.334;23.876;2022-10-16T05:22:49;20.03;;;13.03;;
10481;SDS011;5288;42.334;23.876;2022-10-16T05:25:16;19.23;;;11.77;;
10481;SDS011;5288;42.334;23.876;2022-10-16T05:27:46;17.90;;;14.30;;
10481;SDS011;5288;42.334;23.876;2022-10-16T05:30:14;26.33;;;17.77;;
10481;SDS011;5288;42.334;23.876;2022-10-16T05:32:45;74.63;;;43.43;;
10481;SDS011;5288;42.334;23.876;2022-10-16T05:35:13;52.30;;;32.00;;
10481;SDS011;5288;42.334;23.876;2022-10-16T05:37:40;57.03;;;35.03;;
10481;SDS011;5288;42.334;23.876;2022-10-16T05:40:08;38.47;;;24.53;;
10481;SDS011;5288;42.334;23.876;2022-10-16T05:42:36;29.13;;;20.17;;
10481;SDS011;5288;42.334;23.876;2022-10-16T05:45:06;28.37;;;21.90;;
10481;SDS011;5288;42.334;23.876;2022-10-16T05:47:39;29.97;;;24.10;;
10481;SDS011;5288;42.334;23.876;2022-10-16T05:50:09;27.80;;;23.00;;
10481;SDS011;5288;42.334;23.876;2022-10-16T05:52:37;24.23;;;19.73;;
10481;SDS011;5288;42.334;23.876;2022-10-16T05:55:04;22.43;;;17.33;;
10481;SDS011;5288;42.334;23.876;2022-10-16T05:57:32;23.67;;;17.67;;
10481;SDS011;5288;42.334;23.876;2022-10-16T05:59:59;21.63;;;16.60;;
10481;SDS011;5288;42.334;23.876;2022-10-16T06:02:26;19.90;;;16.80;;
10481;SDS011;5288;42.334;23.876;2022-10-16T06:04:53;23.83;;;19.10;;
10481;SDS011;5288;42.334;23.876;2022-10-16T06:07:22;20.57;;;16.43;;
10481;SDS011;5288;42.334;23.876;2022-10-16T06:09:49;19.33;;;17.30;;
10481;SDS011;5288;42.334;23.876;2022-10-16T06:12:16;21.50;;;16.77;;
10481;SDS011;5288;42.334;23.876;2022-10-16T06:14:44;26.03;;;21.30;;
10481;SDS011;5288;42.334;23.876;2022-10-16T06:17:12;16.47;;;13.37;;
10481;SDS011;5288;42.334;23.876;2022-10-16T06:19:39;13.67;;;12.00;;
10481;SDS011;5288;42.334;23.876;2022-10-16T06:22:06;17.67;;;14.40;;
10481;SDS011;5288;42.334;23.876;2022-10-16T06:24:34;16.93;;;15.03;;
10481;SDS011;5288;42.334;23.876;2022-10-16T06:27:02;16.60;;;14.77;;
10481;SDS011;5288;42.334;23.876;2022-10-16T06:29:30;15.20;;;13.60;;
10481;SDS011;5288;42.334;23.876;2022-10-16T06:31:57;15.10;;;13.53;;
10481;SDS011;5288;42.334;23.876;2022-10-16T06:34:24;15.73;;;14.07;;
10481;SDS011;5288;42.334;23.876;2022-10-16T06:36:51;14.73;;;12.23;;
10481;SDS011;5288;42.334;23.876;2022-10-16T06:39:18;12.57;;;11.27;;
10481;SDS011;5288;42.334;23.876;2022-10-16T06:41:46;14.80;;;11.33;;
10481;SDS011;5288;42.334;23.876;2022-10-16T06:44:14;19.63;;;14.53;;
10481;SDS011;5288;42.334;23.876;2022-10-16T06:46:41;13.10;;;11.17;;
10481;SDS011;5288;42.334;23.876;2022-10-16T06:49:08;14.70;;;10.83;;
10481;SDS011;5288;42.334;23.876;2022-10-16T06:51:35;14.33;;;11.40;;
10481;SDS011;5288;42.334;23.876;2022-10-16T06:54:06;12.20;;;10.47;;
10481;SDS011;5288;42.334;23.876;2022-10-16T06:56:33;13.50;;;12.13;;
10481;SDS011;5288;42.334;23.876;2022-10-16T06:59:04;17.20;;;12.63;;
10481;SDS011;5288;42.334;23.876;2022-10-16T07:01:31;11.90;;;9.93;;
10481;SDS011;5288;42.334;23.876;2022-10-16T07:03:59;19.60;;;15.03;;
10481;SDS011;5288;42.334;23.876;2022-10-16T07:06:30;17.57;;;14.67;;
10481;SDS011;5288;42.334;23.876;2022-10-16T07:09:00;13.37;;;11.47;;
10481;SDS011;5288;42.334;23.876;2022-10-16T07:11:29;12.33;;;10.10;;
10481;SDS011;5288;42.334;23.876;2022-10-16T07:13:56;8.80;;;7.60;;
10481;SDS011;5288;42.334;23.876;2022-10-16T07:16:25;11.03;;;9.70;;
10481;SDS011;5288;42.334;23.876;2022-10-16T07:18:53;10.13;;;8.23;;
10481;SDS011;5288;42.334;23.876;2022-10-16T07:21:24;12.07;;;8.57;;
10481;SDS011;5288;42.334;23.876;2022-10-16T07:23:53;9.10;;;8.20;;
10481;SDS011;5288;42.334;23.876;2022-10-16T07:26:22;10.87;;;9.57;;
10481;SDS011;5288;42.334;23.876;2022-10-16T07:28:50;11.10;;;9.30;;
10481;SDS011;5288;42.334;23.876;2022-10-16T07:31:17;10.43;;;9.30;;
10481;SDS011;5288;42.334;23.876;2022-10-16T07:33:47;10.83;;;8.83;;
10481;SDS011;5288;42.334;23.876;2022-10-16T07:36:15;11.70;;;9.37;;
10481;SDS011;5288;42.334;23.876;2022-10-16T07:38:42;9.97;;;8.40;;
10481;SDS011;5288;42.334;23.876;2022-10-16T07:41:10;10.33;;;8.30;;
10481;SDS011;5288;42.334;23.876;2022-10-16T07:43:39;8.80;;;7.97;;
10481;SDS011;5288;42.334;23.876;2022-10-16T07:46:07;10.27;;;7.17;;
10481;SDS011;5288;42.334;23.876;2022-10-16T07:48:34;11.93;;;9.53;;
10481;SDS011;5288;42.334;23.876;2022-10-16T07:51:03;16.93;;;12.80;;
10481;SDS011;5288;42.334;23.876;2022-10-16T07:53:32;11.97;;;10.37;;
10481;SDS011;5288;42.334;23.876;2022-10-16T07:55:59;23.37;;;19.80;;
10481;SDS011;5288;42.334;23.876;2022-10-16T07:58:27;9.37;;;7.40;;
10481;SDS011;5288;42.334;23.876;2022-10-16T08:00:55;8.47;;;7.30;;
10481;SDS011;5288;42.334;23.876;2022-10-16T08:03:22;12.60;;;10.33;;
10481;SDS011;5288;42.334;23.876;2022-10-16T08:05:49;10.83;;;9.70;;
10481;SDS011;5288;42.334;23.876;2022-10-16T08:08:18;8.63;;;7.03;;
10481;SDS011;5288;42.334;23.876;2022-10-16T08:10:45;8.80;;;6.30;;
10481;SDS011;5288;42.334;23.876;2022-10-16T08:13:12;10.60;;;7.20;;
10481;SDS011;5288;42.334;23.876;2022-10-16T08:15:40;11.17;;;7.20;;
10481;SDS011;5288;42.334;23.876;2022-10-16T08:18:09;7.53;;;5.97;;
10481;SDS011;5288;42.334;23.876;2022-10-16T08:20:37;8.77;;;5.90;;
10481;SDS011;5288;42.334;23.876;2022-10-16T08:23:04;9.83;;;7.30;;
10481;SDS011;5288;42.334;23.876;2022-10-16T08:25:33;16.30;;;7.17;;
10481;SDS011;5288;42.334;23.876;2022-10-16T08:28:02;8.93;;;6.37;;
10481;SDS011;5288;42.334;23.876;2022-10-16T08:30:30;8.50;;;7.13;;
10481;SDS011;5288;42.334;23.876;2022-10-16T08:32:57;10.87;;;7.00;;
10481;SDS011;5288;42.334;23.876;2022-10-16T08:35:24;10.17;;;7.10;;
10481;SDS011;5288;42.334;23.876;2022-10-16T08:37:51;9.47;;;6.97;;
10481;SDS011;5288;42.334;23.876;2022-10-16T08:40:18;12.50;;;7.63;;
10481;SDS011;5288;42.334;23.876;2022-10-16T08:42:56;11.70;;;7.53;;
10481;SDS011;5288;42.334;23.876;2022-10-16T08:45:39;13.37;;;7.23;;
10481;SDS011;5288;42.334;23.876;2022-10-16T08:48:19;6.73;;;6.03;;
10481;SDS011;5288;42.334;23.876;2022-10-16T08:50:51;8.20;;;5.87;;
10481;SDS011;5288;42.334;23.876;2022-10-16T08:53:20;6.27;;;5.67;;
10481;SDS011;5288;42.334;23.876;2022-10-16T08:55:52;9.70;;;5.87;;
10481;SDS011;5288;42.334;23.876;2022-10-16T08:58:22;11.60;;;5.53;;
10481;SDS011;5288;42.334;23.876;2022-10-16T09:00:53;9.23;;;5.53;;
10481;SDS011;5288;42.334;23.876;2022-10-16T09:03:24;7.67;;;4.70;;
10481;SDS011;5288;42.334;23.876;2022-10-16T09:09:16;6.10;;;5.23;;
10481;SDS011;5288;42.334;23.876;2022-10-16T09:11:55;10.13;;;4.47;;
10481;SDS011;5288;42.334;23.876;2022-10-16T09:17:40;7.30;;;4.87;;
10481;SDS011;5288;42.334;23.876;2022-10-16T09:20:19;7.83;;;5.07;;
10481;SDS011;5288;42.334;23.876;2022-10-16T09:22:55;5.90;;;4.60;;
10481;SDS011;5288;42.334;23.876;2022-10-16T09:25:36;7.30;;;4.60;;
10481;SDS011;5288;42.334;23.876;2022-10-16T09:28:07;5.50;;;4.90;;
10481;SDS011;5288;42.334;23.876;2022-10-16T09:30:36;6.20;;;4.90;;
10481;SDS011;5288;42.334;23.876;2022-10-16T09:33:05;4.67;;;4.17;;
10481;SDS011;5288;42.334;23.876;2022-10-16T09:35:35;5.77;;;4.10;;
10481;SDS011;5288;42.334;23.876;2022-10-16T09:38:05;5.03;;;4.27;;
10481;SDS011;5288;42.334;23.876;2022-10-16T09:40:34;6.77;;;4.63;;
10481;SDS011;5288;42.334;23.876;2022-10-16T09:43:06;4.70;;;4.27;;
10481;SDS011;5288;42.334;23.876;2022-10-16T09:45:44;5.03;;;4.20;;
10481;SDS011;5288;42.334;23.876;2022-10-16T09:48:20;5.67;;;4.10;;
10481;SDS011;5288;42.334;23.876;2022-10-16T09:50:55;5.00;;;3.90;;
10481;SDS011;5288;42.334;23.876;2022-10-16T09:53:22;11.00;;;8.77;;
10481;SDS011;5288;42.334;23.876;2022-10-16T09:55:50;12.07;;;4.70;;
10481;SDS011;5288;42.334;23.876;2022-10-16T09:58:20;10.67;;;4.83;;
10481;SDS011;5288;42.334;23.876;2022-10-16T10:00:50;4.30;;;3.80;;
10481;SDS011;5288;42.334;23.876;2022-10-16T10:06:05;4.23;;;3.77;;
10481;SDS011;5288;42.334;23.876;2022-10-16T10:08:54;8.23;;;4.53;;
10481;SDS011;5288;42.334;23.876;2022-10-16T10:11:36;6.63;;;3.93;;
10481;SDS011;5288;42.334;23.876;2022-10-16T10:14:09;4.60;;;3.90;;
10481;SDS011;5288;42.334;23.876;2022-10-16T10:16:46;10.93;;;3.80;;
10481;SDS011;5288;42.334;23.876;2022-10-16T10:19:15;6.07;;;3.90;;
10481;SDS011;5288;42.334;23.876;2022-10-16T10:21:43;3.47;;;2.90;;
10481;SDS011;5288;42.334;23.876;2022-10-16T10:24:11;6.57;;;3.93;;
10481;SDS011;5288;42.334;23.876;2022-10-16T10:26:41;3.67;;;3.30;;
10481;SDS011;5288;42.334;23.876;2022-10-16T10:29:16;6.93;;;4.10;;
10481;SDS011;5288;42.334;23.876;2022-10-16T10:31:58;4.20;;;3.43;;
10481;SDS011;5288;42.334;23.876;2022-10-16T10:34:35;4.67;;;3.10;;
10481;SDS011;5288;42.334;23.876;2022-10-16T10:37:17;3.90;;;3.50;;
10481;SDS011;5288;42.334;23.876;2022-10-16T10:39:57;5.27;;;4.07;;
10481;SDS011;5288;42.334;23.876;2022-10-16T10:42:29;3.97;;;3.47;;
10481;SDS011;5288;42.334;23.876;2022-10-16T10:45:11;3.97;;;3.33;;
10481;SDS011;5288;42.334;23.876;2022-10-16T10:47:49;5.00;;;3.53;;
10481;SDS011;5288;42.334;23.876;2022-10-16T10:50:30;4.50;;;3.83;;
10481;SDS011;5288;42.334;23.876;2022-10-16T10:53:06;9.80;;;4.40;;
10481;SDS011;5288;42.334;23.876;2022-10-16T10:55:45;3.80;;;3.40;;
10481;SDS011;5288;42.334;23.876;2022-10-16T11:01:14;3.50;;;3.10;;
10481;SDS011;5288;42.334;23.876;2022-10-16T11:06:44;9.17;;;3.40;;
10481;SDS011;5288;42.334;23.876;2022-10-16T11:09:15;6.53;;;3.00;;
10481;SDS011;5288;42.334;23.876;2022-10-16T11:11:47;5.13;;;2.80;;
10481;SDS011;5288;42.334;23.876;2022-10-16T11:14:21;9.20;;;3.43;;
10481;SDS011;5288;42.334;23.876;2022-10-16T11:16:53;3.87;;;2.50;;
10481;SDS011;5288;42.334;23.876;2022-10-16T11:19:28;2.63;;;2.30;;
10481;SDS011;5288;42.334;23.876;2022-10-16T11:22:03;5.70;;;2.87;;
10481;SDS011;5288;42.334;23.876;2022-10-16T11:24:37;3.27;;;2.20;;
10481;SDS011;5288;42.334;23.876;2022-10-16T11:27:09;3.37;;;2.43;;
10481;SDS011;5288;42.334;23.876;2022-10-16T11:29:45;5.07;;;3.20;;
10481;SDS011;5288;42.334;23.876;2022-10-16T11:32:19;4.27;;;2.47;;
10481;SDS011;5288;42.334;23.876;2022-10-16T11:34:52;4.50;;;3.37;;
10481;SDS011;5288;42.334;23.876;2022-10-16T11:37:24;3.33;;;3.03;;
10481;SDS011;5288;42.334;23.876;2022-10-16T11:39:54;10.83;;;4.90;;
10481;SDS011;5288;42.334;23.876;2022-10-16T11:42:30;2.53;;;2.33;;
10481;SDS011;5288;42.334;23.876;2022-10-16T11:45:07;3.43;;;2.67;;
10481;SDS011;5288;42.334;23.876;2022-10-16T11:47:43;8.37;;;5.67;;
10481;SDS011;5288;42.334;23.876;2022-10-16T11:50:17;2.97;;;2.67;;
10481;SDS011;5288;42.334;23.876;2022-10-16T11:52:52;4.00;;;2.83;;
10481;SDS011;5288;42.334;23.876;2022-10-16T11:55:23;3.37;;;2.00;;
10481;SDS011;5288;42.334;23.876;2022-10-16T11:57:57;4.20;;;2.40;;
10481;SDS011;5288;42.334;23.876;2022-10-16T12:00:30;3.67;;;2.70;;
10481;SDS011;5288;42.334;23.876;2022-10-16T12:03:03;7.00;;;2.80;;
10481;SDS011;5288;42.334;23.876;2022-10-16T12:05:50;2.97;;;2.67;;
10481;SDS011;5288;42.334;23.876;2022-10-16T12:08:25;3.23;;;2.73;;
10481;SDS011;5288;42.334;23.876;2022-10-16T12:10:53;3.37;;;2.33;;
10481;SDS011;5288;42.334;23.876;2022-10-16T12:13:28;3.70;;;2.50;;
10481;SDS011;5288;42.334;23.876;2022-10-16T12:16:04;2.67;;;2.40;;
10481;SDS011;5288;42.334;23.876;2022-10-16T12:18:47;3.70;;;2.50;;
10481;SDS011;5288;42.334;23.876;2022-10-16T12:21:16;8.33;;;3.53;;
10481;SDS011;5288;42.334;23.876;2022-10-16T12:23:48;4.67;;;3.30;;
10481;SDS011;5288;42.334;23.876;2022-10-16T12:26:23;6.43;;;3.40;;
10481;SDS011;5288;42.334;23.876;2022-10-16T12:28:51;5.33;;;3.57;;
10481;SDS011;5288;42.334;23.876;2022-10-16T12:31:18;12.93;;;8.23;;
10481;SDS011;5288;42.334;23.876;2022-10-16T12:33:57;8.60;;;6.23;;
10481;SDS011;5288;42.334;23.876;2022-10-16T12:36:29;3.47;;;3.17;;
10481;SDS011;5288;42.334;23.876;2022-10-16T12:38:58;2.73;;;2.43;;
10481;SDS011;5288;42.334;23.876;2022-10-16T12:41:27;3.43;;;3.10;;
10481;SDS011;5288;42.334;23.876;2022-10-16T12:43:56;4.40;;;2.70;;
10481;SDS011;5288;42.334;23.876;2022-10-16T12:46:37;3.33;;;2.60;;
10481;SDS011;5288;42.334;23.876;2022-10-16T12:49:06;4.27;;;2.90;;
10481;SDS011;5288;42.334;23.876;2022-10-16T12:51:48;3.53;;;2.90;;
10481;SDS011;5288;42.334;23.876;2022-10-16T12:54:16;5.10;;;2.90;;
10481;SDS011;5288;42.334;23.876;2022-10-16T12:56:49;2.87;;;2.37;;
10481;SDS011;5288;42.334;23.876;2022-10-16T12:59:25;3.17;;;2.20;;
10481;SDS011;5288;42.334;23.876;2022-10-16T13:02:06;5.43;;;2.67;;
10481;SDS011;5288;42.334;23.876;2022-10-16T13:05:00;5.47;;;2.50;;
10481;SDS011;5288;42.334;23.876;2022-10-16T13:07:44;7.83;;;3.47;;
10481;SDS011;5288;42.334;23.876;2022-10-16T13:10:22;3.30;;;2.83;;
10481;SDS011;5288;42.334;23.876;2022-10-16T13:13:02;5.27;;;3.30;;
10481;SDS011;5288;42.334;23.876;2022-10-16T13:15:54;3.37;;;2.53;;
10481;SDS011;5288;42.334;23.876;2022-10-16T13:18:38;3.67;;;2.90;;
10481;SDS011;5288;42.334;23.876;2022-10-16T13:21:19;2.80;;;2.43;;
10481;SDS011;5288;42.334;23.876;2022-10-16T13:23:57;3.33;;;2.43;;
10481;SDS011;5288;42.334;23.876;2022-10-16T13:26:31;3.47;;;2.90;;
10481;SDS011;5288;42.334;23.876;2022-10-16T13:29:08;4.33;;;3.60;;
10481;SDS011;5288;42.334;23.876;2022-10-16T13:31:36;4.60;;;3.40;;
10481;SDS011;5288;42.334;23.876;2022-10-16T13:34:05;3.17;;;2.63;;
10481;SDS011;5288;42.334;23.876;2022-10-16T13:36:43;3.50;;;2.97;;
10481;SDS011;5288;42.334;23.876;2022-10-16T13:39:13;4.83;;;3.53;;
10481;SDS011;5288;42.334;23.876;2022-10-16T13:41:43;7.90;;;3.87;;
10481;SDS011;5288;42.334;23.876;2022-10-16T13:44:12;3.70;;;3.27;;
10481;SDS011;5288;42.334;23.876;2022-10-16T13:46:42;6.23;;;3.83;;
10481;SDS011;5288;42.334;23.876;2022-10-16T13:49:13;5.20;;;3.07;;
10481;SDS011;5288;42.334;23.876;2022-10-16T13:51:40;5.00;;;3.07;;
10481;SDS011;5288;42.334;23.876;2022-10-16T13:54:09;3.97;;;3.50;;
10481;SDS011;5288;42.334;23.876;2022-10-16T13:56:38;5.40;;;3.13;;
10481;SDS011;5288;42.334;23.876;2022-10-16T13:59:20;5.20;;;3.57;;
10481;SDS011;5288;42.334;23.876;2022-10-16T14:01:50;4.93;;;3.17;;
10481;SDS011;5288;42.334;23.876;2022-10-16T14:04:19;6.33;;;4.73;;
10481;SDS011;5288;42.334;23.876;2022-10-16T14:06:48;3.73;;;2.70;;
10481;SDS011;5288;42.334;23.876;2022-10-16T14:09:20;6.93;;;3.50;;
10481;SDS011;5288;42.334;23.876;2022-10-16T14:11:52;5.03;;;4.10;;
10481;SDS011;5288;42.334;23.876;2022-10-16T14:14:22;5.50;;;3.40;;
10481;SDS011;5288;42.334;23.876;2022-10-16T14:16:50;3.83;;;3.50;;
10481;SDS011;5288;42.334;23.876;2022-10-16T14:19:18;3.67;;;3.23;;
10481;SDS011;5288;42.334;23.876;2022-10-16T14:21:48;3.60;;;3.30;;
10481;SDS011;5288;42.334;23.876;2022-10-16T14:24:23;6.00;;;3.50;;
10481;SDS011;5288;42.334;23.876;2022-10-16T14:26:55;6.13;;;4.20;;
10481;SDS011;5288;42.334;23.876;2022-10-16T14:29:22;4.43;;;3.33;;
10481;SDS011;5288;42.334;23.876;2022-10-16T14:31:57;8.13;;;4.20;;
10481;SDS011;5288;42.334;23.876;2022-10-16T14:34:26;4.77;;;3.57;;
10481;SDS011;5288;42.334;23.876;2022-10-16T14:36:55;4.47;;;3.13;;
10481;SDS011;5288;42.334;23.876;2022-10-16T14:39:23;15.70;;;4.97;;
10481;SDS011;5288;42.334;23.876;2022-10-16T14:41:52;10.60;;;5.93;;
10481;SDS011;5288;42.334;23.876;2022-10-16T14:44:26;11.97;;;7.17;;
10481;SDS011;5288;42.334;23.876;2022-10-16T14:46:56;5.97;;;4.10;;
10481;SDS011;5288;42.334;23.876;2022-10-16T14:49:24;8.77;;;4.13;;
10481;SDS011;5288;42.334;23.876;2022-10-16T14:51:53;3.67;;;2.97;;
10481;SDS011;5288;42.334;23.876;2022-10-16T14:54:20;5.97;;;4.07;;
10481;SDS011;5288;42.334;23.876;2022-10-16T14:56:48;4.73;;;4.20;;
10481;SDS011;5288;42.334;23.876;2022-10-16T14:59:21;6.90;;;5.33;;
10481;SDS011;5288;42.334;23.876;2022-10-16T15:01:53;5.63;;;4.50;;
10481;SDS011;5288;42.334;23.876;2022-10-16T15:04:20;8.90;;;5.60;;
10481;SDS011;5288;42.334;23.876;2022-10-16T15:06:47;5.87;;;3.93;;
10481;SDS011;5288;42.334;23.876;2022-10-16T15:09:14;5.77;;;4.50;;
10481;SDS011;5288;42.334;23.876;2022-10-16T15:11:41;4.50;;;3.60;;
10481;SDS011;5288;42.334;23.876;2022-10-16T15:14:09;5.90;;;3.77;;
10481;SDS011;5288;42.334;23.876;2022-10-16T15:16:40;4.33;;;3.23;;
10481;SDS011;5288;42.334;23.876;2022-10-16T15:19:06;6.47;;;3.77;;